Historyczne dane pomiarowe

Dodano dane terminowe – wersja testowa.

Dane z okresu 1951-2019

Wersja bazy: 1.34 [2019-03-16, lista zmian], aktualizacja planowana na 2019-04-15

Dane meteo z obszaru Polski uzyskane na podstawie danych udostępnionych przez Instytut Meteorologii i Gospodarki Wodnej – Państwowy Instytut Badawczy.

 

Wybierz Datę:    

       

TemperaturaWilgotnośćWiatrCiśnienieOpadyŚniegCzas trwania zjawisk
 Stacja t tx tn tng RH VA  wxwx mslp ppp RRR   cm mm wxwxwxwxwxwxwx
2001-01-14 -7.3 -0.7 -9.6--- 2.7----- 0.0-- 20---------
2001-01-15-10.2 0.3-17.1--- 0.0----- 0.0-- 20---------
2001-01-16-11.1 -2.7-16.6--- 1.7----- 0.0-- 18---------
2001-01-17 -7.9 1.3-16.1--- 3.3----- 0.0-- 16---------
2001-01-18 -7.9 3.0-15.3--- 0.0----- 0.0-- 15---------
2001-01-19 -8.1 2.3-14.3--- 0.0----- 0.0-- 14---------
2001-01-20 -4.7 1.1-11.7--- 8.0----- 0.0-- 12---------
2001-01-21 -6.9 0.0-11.8--- 6.7----- 0.0-- 12---------
2001-01-22 -6.4 -1.6 -9.9--- 6.7----- 0.0-- 12---------
2001-01-23 -0.5 2.8 -6.9--- 8.0----- 0.0-- 12---------
2001-01-24 2.8 6.9 -1.3--- 2.0----- 0.0-- 10---------
2001-01-25 5.0 6.4 4.4--- 8.0----- 0.0-- 5---------
2001-01-26 4.1 7.1 2.0--- 8.0----- 0.3------------
2001-01-27 3.4 8.1 -0.2--- 6.7----- 0.0------------
2001-01-28 1.7 8.4 -2.5--- 2.7----- 0.0------------
2001-01-29 0.0 3.8 -3.5--- 8.0----- 0.0------------
2001-01-30 -0.2 1.4 -1.0--- 8.0----- 1.1------------
2001-01-31 -1.0 -0.4 -1.5--- 8.0----- 17.6-- 5---------
2001-02-01 -3.3 -1.0 -4.2--- 8.0----- 1.4-- 30---------
2001-02-02 -4.6 -1.2 -5.8--- 5.3----- 0.0-- 30---------
2001-02-03-10.3 -3.2-16.5--- 5.3----- 1.4-- 30---------
2001-02-04 -4.6 -1.5 -8.8--- 8.0----- 0.8-- 30---------
2001-02-05 1.7 9.0 -4.5--- 8.0----- 5.5-- 30---------
2001-02-06 4.7 11.0 0.8--- 6.7----- 0.0-- 12---------
2001-02-07 5.6 14.5 1.0--- 1.3----- 0.0-- 10---------
2001-02-08 5.9 15.2 0.5--- 4.0----- 0.0-- 4---------
2001-02-09 7.1 16.0 2.9--- 2.7----- 1.4------------
2001-02-10 4.3 6.6 2.0--- 8.0----- 0.0------------
2001-02-11 0.6 7.7 -3.3--- 0.0----- 0.0------------
2001-02-12 3.5 16.0 -4.5--- 4.0----- 0.0------------
309.2 ms

 

Źródłem pochodzenia danych jest Instytut Meteorologii i Gospodarki Wodnej – Państwowy Instytut Badawczy. Dane Instytutu Meteorologii i Gospodarki Wodnej – Państwowego Instytutu Badawczego zostały przetworzone.

Dane źródłowe można odnaleźć na stronie https://dane.imgw.pl